Time;durP1;ratioP1;P1;durP2;ratioP2;P2;SDS_P1;SDS_P2;PMS_P1;PMS_P2;Temp;Humidity;BMP_temperature;BMP_pressure;BME280_temperature;BME280_humidity;BME280_pressure;Samples;Min_cycle;Max_cycle;Signal;HPM_P1;HPM_P2
2023/02/10 00:00:47;;;;;;;10.55;7.65;;;4.70;99.90;;;;;;5059759;28;20278;-78
2023/02/10 00:03:14;;;;;;;0.60;0.60;;;4.70;99.90;;;;;;5058816;28;20195;-76
2023/02/10 00:05:41;;;;;;;12.23;3.13;;;4.70;99.90;;;;;;5059137;28;20285;-79
2023/02/10 00:08:08;;;;;;;2.80;2.35;;;4.70;99.90;;;;;;5058495;28;20293;-78
2023/02/10 00:10:36;;;;;;;6.10;4.78;;;4.60;99.90;;;;;;5057756;28;20199;-77
2023/02/10 00:13:03;;;;;;;4.68;3.55;;;4.70;99.90;;;;;;5059208;28;20202;-77
2023/02/10 00:15:30;;;;;;;8.32;7.50;;;4.60;99.90;;;;;;5057381;28;20229;-78
2023/02/10 00:17:56;;;;;;;0.50;0.50;;;4.60;99.90;;;;;;5058846;28;20249;-78
2023/02/10 00:20:23;;;;;;;3.90;3.10;;;4.60;99.90;;;;;;5057482;28;20285;-78
2023/02/10 00:22:50;;;;;;;0.65;0.65;;;4.60;99.90;;;;;;5057701;28;20281;-78
2023/02/10 00:25:17;;;;;;;0.65;0.63;;;4.60;99.90;;;;;;5057879;28;20575;-77
2023/02/10 00:27:45;;;;;;;1.15;1.05;;;4.60;99.90;;;;;;5059057;28;20223;-76
2023/02/10 00:30:13;;;;;;;2.35;2.25;;;4.60;99.90;;;;;;5060789;28;20202;-79
2023/02/10 00:32:40;;;;;;;2.65;1.02;;;4.60;99.90;;;;;;5058685;28;20203;-80
2023/02/10 00:35:08;;;;;;;2.65;2.25;;;4.70;99.90;;;;;;5059440;28;20195;-78
2023/02/10 00:37:35;;;;;;;3.80;2.10;;;4.60;99.90;;;;;;5059506;28;20221;-78
2023/02/10 00:40:01;;;;;;;2.65;2.55;;;4.70;99.90;;;;;;5060174;28;20233;-78
2023/02/10 00:42:28;;;;;;;5.65;3.53;;;4.70;99.90;;;;;;5061301;28;20195;-78
2023/02/10 00:44:56;;;;;;;2.50;2.30;;;4.70;99.90;;;;;;5058856;28;20277;-79
2023/02/10 00:47:25;;;;;;;1.67;1.58;;;4.70;99.90;;;;;;5059234;28;20217;-77
2023/02/10 00:49:52;;;;;;;1.73;1.63;;;4.70;99.90;;;;;;5059703;28;20265;-77
2023/02/10 00:52:19;;;;;;;1.98;1.45;;;4.70;99.90;;;;;;5057313;28;20279;-77
2023/02/10 00:54:46;;;;;;;2.90;2.72;;;4.70;99.90;;;;;;5058411;28;20281;-77
2023/02/10 00:57:13;;;;;;;2.30;2.15;;;4.70;99.90;;;;;;5058094;28;20203;-79
2023/02/10 00:59:39;;;;;;;8.30;4.57;;;4.70;99.90;;;;;;5056788;28;20691;-78
2023/02/10 01:02:08;;;;;;;1.25;1.15;;;4.70;99.90;;;;;;5056774;28;20190;-76
2023/02/10 01:04:36;;;;;;;3.35;3.15;;;4.70;99.90;;;;;;5056620;28;20711;-78
2023/02/10 01:07:03;;;;;;;6.53;1.25;;;4.60;99.90;;;;;;5057270;28;20198;-79
2023/02/10 01:09:30;;;;;;;10.52;5.20;;;4.70;99.90;;;;;;5058055;28;20300;-78
2023/02/10 01:11:57;;;;;;;0.50;0.40;;;4.70;99.90;;;;;;5057162;28;20668;-79
2023/02/10 01:14:24;;;;;;;0.63;0.63;;;4.70;99.90;;;;;;5057725;28;20739;-76
2023/02/10 01:16:51;;;;;;;3.05;2.78;;;4.70;99.90;;;;;;5057923;28;20201;-79
2023/02/10 01:19:20;;;;;;;0.90;0.90;;;4.70;99.90;;;;;;5057184;28;20226;-78
2023/02/10 01:21:46;;;;;;;2.88;1.58;;;4.70;99.90;;;;;;5056316;28;20265;-78
2023/02/10 01:24:13;;;;;;;34.67;10.60;;;4.80;99.90;;;;;;5056787;28;20205;-77
2023/02/10 01:26:40;;;;;;;0.60;0.60;;;4.80;99.90;;;;;;5056454;28;20195;-79
2023/02/10 01:29:07;;;;;;;7.78;3.20;;;4.80;99.90;;;;;;5057133;28;20229;-79
2023/02/10 01:31:34;;;;;;;1.90;1.58;;;4.80;99.90;;;;;;5058087;28;20390;-78
2023/02/10 01:34:01;;;;;;;0.50;0.40;;;4.80;99.90;;;;;;5058898;28;20802;-78
2023/02/10 01:36:29;;;;;;;1.02;1.02;;;4.80;99.90;;;;;;5058667;28;20198;-74
2023/02/10 01:38:56;;;;;;;2.03;1.08;;;4.70;99.90;;;;;;5059093;28;20207;-78
2023/02/10 01:41:24;;;;;;;0.50;0.40;;;4.80;99.90;;;;;;5058847;28;20204;-77
2023/02/10 01:43:59;;;;;;;0.90;0.90;;;4.70;99.90;;;;;;5058605;28;20202;-78
2023/02/10 01:46:27;;;;;;;1.88;1.23;;;4.70;99.90;;;;;;5057445;28;20179;-77
2023/02/10 01:48:56;;;;;;;1.20;1.20;;;4.70;99.90;;;;;;5057849;28;20330;-79
2023/02/10 01:51:29;;;;;;;2.17;1.55;;;4.70;99.90;;;;;;5057946;28;20195;-79
2023/02/10 01:53:58;;;;;;;0.50;0.50;;;4.70;99.90;;;;;;5057157;28;20517;-79
2023/02/10 01:56:25;;;;;;;1.45;0.93;;;4.60;99.90;;;;;;5057128;28;20194;-79
2023/02/10 01:58:52;;;;;;;0.57;0.55;;;4.60;99.90;;;;;;5057626;28;20310;-77
2023/02/10 02:01:19;;;;;;;6.28;3.60;;;4.70;99.90;;;;;;5058020;28;20272;-80
2023/02/10 02:03:46;;;;;;;2.70;2.55;;;4.60;99.90;;;;;;5056464;28;20205;-79
2023/02/10 02:06:13;;;;;;;0.50;0.50;;;4.70;99.90;;;;;;5056150;28;20194;-78
2023/02/10 02:08:40;;;;;;;0.50;0.40;;;4.70;99.90;;;;;;5057170;28;20226;-78
2023/02/10 02:11:19;;;;;;;2.65;2.55;;;4.70;99.90;;;;;;5057707;28;20285;-79
2023/02/10 02:14:11;;;;;;;2.83;1.70;;;4.70;99.90;;;;;;5057323;28;20194;-78
2023/02/10 02:17:04;;;;;;;0.50;0.40;;;4.70;99.90;;;;;;5056157;28;20292;-77
2023/02/10 02:23:22;;;;;;;2.92;2.50;;;4.70;99.90;;;;;;5056303;28;20209;-78
2023/02/10 02:26:33;;;;;;;3.00;2.70;;;4.60;99.90;;;;;;5055590;28;20282;-77
2023/02/10 02:29:16;;;;;;;1.45;1.45;;;4.40;99.90;;;;;;5018664;28;20222;-78
2023/02/10 02:31:59;;;;;;;0.50;0.50;;;4.30;99.90;;;;;;5056894;28;20190;-78
2023/02/10 02:34:34;;;;;;;5.38;4.45;;;4.20;99.90;;;;;;5056005;28;20216;-78
2023/02/10 02:37:04;;;;;;;0.60;0.60;;;4.10;99.90;;;;;;5055724;28;20285;-78
2023/02/10 02:39:33;;;;;;;1.40;1.30;;;4.00;99.90;;;;;;5055164;28;20217;-77
2023/02/10 02:42:18;;;;;;;1.98;1.88;;;3.90;99.90;;;;;;5055156;28;20218;-78
2023/02/10 02:44:48;;;;;;;6.00;1.98;;;3.90;99.90;;;;;;5056207;28;20187;-79
2023/02/10 02:47:30;;;;;;;1.73;1.73;;;3.70;99.90;;;;;;5056534;28;20194;-76
2023/02/10 02:50:07;;;;;;;1.25;1.23;;;3.70;99.90;;;;;;5056063;28;20202;-78
2023/02/10 02:52:47;;;;;;;3.00;2.80;;;3.60;99.90;;;;;;5057380;28;20262;-77
2023/02/10 02:55:23;;;;;;;6.05;3.85;;;3.60;99.90;;;;;;5056092;28;20594;-78
2023/02/10 02:57:54;;;;;;;9.27;2.60;;;3.60;99.90;;;;;;5055750;28;20210;-78
2023/02/10 03:00:26;;;;;;;1.23;1.23;;;3.50;99.90;;;;;;5054274;28;20254;-78
2023/02/10 03:02:55;;;;;;;5.53;5.20;;;3.50;99.90;;;;;;5055053;28;20182;-78
2023/02/10 03:05:28;;;;;;;2.83;2.35;;;3.50;99.90;;;;;;5054502;28;20236;-77
2023/02/10 03:07:55;;;;;;;2.92;2.78;;;3.40;99.90;;;;;;5054357;28;20214;-77
2023/02/10 03:10:22;;;;;;;3.38;3.08;;;3.30;99.90;;;;;;5054941;28;20212;-78
2023/02/10 03:12:50;;;;;;;2.45;2.25;;;3.30;99.90;;;;;;5055681;28;20244;-78
2023/02/10 03:15:17;;;;;;;0.50;0.50;;;3.20;99.90;;;;;;5054498;28;20197;-77
2023/02/10 03:17:44;;;;;;;3.50;2.40;;;3.10;99.90;;;;;;5054620;28;20223;-78
2023/02/10 03:20:13;;;;;;;23.08;7.57;;;3.10;99.90;;;;;;5054860;28;20194;-78
2023/02/10 03:22:42;;;;;;;3.47;3.15;;;3.10;99.90;;;;;;5067721;22;20179;-76
2023/02/10 03:25:09;;;;;;;11.80;5.82;;;3.10;99.90;;;;;;5019885;28;20196;-76
2023/02/10 03:27:36;;;;;;;3.55;3.22;;;3.00;99.90;;;;;;5025902;28;20584;-74
2023/02/10 03:30:03;;;;;;;15.40;7.75;;;3.00;99.90;;;;;;5031970;28;20218;-75
2023/02/10 03:32:30;;;;;;;2.35;1.70;;;3.00;99.90;;;;;;5032974;28;20281;-75
2023/02/10 03:34:56;;;;;;;13.90;7.18;;;2.90;99.90;;;;;;5051286;28;20293;-76
2023/02/10 03:37:25;;;;;;;8.18;4.90;;;2.90;99.90;;;;;;5052127;28;20796;-75
2023/02/10 03:39:51;;;;;;;15.45;8.70;;;2.90;99.90;;;;;;5051887;28;20297;-75
2023/02/10 03:42:18;;;;;;;22.80;8.90;;;2.90;99.90;;;;;;5051341;28;20201;-75
2023/02/10 03:44:45;;;;;;;9.60;6.80;;;2.80;99.90;;;;;;5051194;28;20194;-75
2023/02/10 03:47:12;;;;;;;11.32;6.78;;;2.80;99.90;;;;;;5051804;28;20195;-75
2023/02/10 03:49:39;;;;;;;9.95;4.35;;;2.80;99.90;;;;;;5052172;28;20217;-76
2023/02/10 03:52:06;;;;;;;9.57;6.28;;;2.70;99.90;;;;;;5052235;28;20198;-75
2023/02/10 03:54:34;;;;;;;5.10;4.53;;;2.70;99.90;;;;;;5051662;28;20306;-76
2023/02/10 03:57:01;;;;;;;12.73;6.82;;;2.70;99.90;;;;;;5051493;28;20233;-75
2023/02/10 03:59:28;;;;;;;7.40;4.78;;;2.70;99.90;;;;;;5051922;28;20290;-75
2023/02/10 04:01:54;;;;;;;6.20;5.32;;;2.60;99.90;;;;;;5051409;28;20286;-75
2023/02/10 04:04:21;;;;;;;12.73;6.28;;;2.60;99.90;;;;;;5051621;28;20225;-72
2023/02/10 04:06:48;;;;;;;2.63;1.85;;;2.60;99.90;;;;;;5051883;28;20229;-76
2023/02/10 04:09:15;;;;;;;40.65;11.15;;;2.60;99.90;;;;;;5051608;28;20217;-75
2023/02/10 04:11:43;;;;;;;4.10;3.42;;;2.60;99.90;;;;;;5051605;28;20205;-76
2023/02/10 04:14:10;;;;;;;6.45;4.70;;;2.60;99.90;;;;;;5051526;28;20775;-75
2023/02/10 04:16:37;;;;;;;5.43;5.00;;;2.60;99.90;;;;;;5051216;28;20204;-75
2023/02/10 04:19:04;;;;;;;7.72;7.03;;;2.50;99.90;;;;;;5051278;28;20225;-75
2023/02/10 04:21:30;;;;;;;10.35;4.78;;;2.50;99.90;;;;;;5054999;28;20608;-74
2023/02/10 04:23:57;;;;;;;16.05;10.80;;;2.50;99.90;;;;;;5054936;28;20223;-75
2023/02/10 04:26:24;;;;;;;4.75;4.40;;;2.50;99.90;;;;;;5054708;28;20293;-75
2023/02/10 04:28:52;;;;;;;15.25;8.02;;;2.50;99.90;;;;;;5054389;28;20225;-74
2023/02/10 04:31:19;;;;;;;2.45;2.33;;;2.50;99.90;;;;;;5054480;28;20199;-75
2023/02/10 04:33:46;;;;;;;4.85;3.92;;;2.50;99.90;;;;;;5054631;28;20250;-75
2023/02/10 04:36:13;;;;;;;3.83;3.47;;;2.50;99.90;;;;;;5054559;28;20198;-75
2023/02/10 04:38:40;;;;;;;16.58;8.00;;;2.50;99.90;;;;;;5055021;28;20221;-74
2023/02/10 04:41:07;;;;;;;5.80;5.32;;;2.60;99.90;;;;;;5054733;28;20195;-74
2023/02/10 04:43:34;;;;;;;8.93;6.68;;;2.60;99.90;;;;;;5053767;28;20272;-76
2023/02/10 04:46:03;;;;;;;7.82;6.40;;;2.70;99.90;;;;;;5054036;28;20203;-75
2023/02/10 04:48:30;;;;;;;12.18;8.73;;;2.70;99.90;;;;;;5054547;28;20199;-75
2023/02/10 04:50:57;;;;;;;17.20;5.72;;;2.80;99.90;;;;;;5054636;28;20287;-76
2023/02/10 04:53:24;;;;;;;12.10;8.93;;;2.80;99.90;;;;;;5054574;28;20806;-76
2023/02/10 04:55:51;;;;;;;8.13;7.05;;;2.70;99.90;;;;;;5054285;28;20625;-75
2023/02/10 04:58:18;;;;;;;13.93;8.20;;;2.70;99.90;;;;;;5054168;28;20195;-75
2023/02/10 05:00:45;;;;;;;8.65;5.88;;;2.60;99.90;;;;;;5054394;28;20199;-78
2023/02/10 05:03:13;;;;;;;6.88;4.93;;;2.60;99.90;;;;;;5054785;28;20647;-77
2023/02/10 05:05:40;;;;;;;7.65;6.72;;;2.60;99.90;;;;;;5054246;28;20291;-76
2023/02/10 05:08:07;;;;;;;7.78;4.20;;;2.60;99.90;;;;;;5054326;28;20294;-77
2023/02/10 05:10:34;;;;;;;7.45;5.50;;;2.60;99.90;;;;;;5054675;28;20214;-77
2023/02/10 05:13:01;;;;;;;11.27;8.25;;;2.70;99.90;;;;;;5054340;28;20219;-77
2023/02/10 05:15:28;;;;;;;19.23;12.70;;;2.70;99.90;;;;;;5054757;28;20553;-76
2023/02/10 05:17:54;;;;;;;12.20;6.57;;;2.80;99.90;;;;;;5054828;28;20199;-77
2023/02/10 05:20:23;;;;;;;18.67;11.40;;;2.80;99.90;;;;;;5054387;28;20281;-77
2023/02/10 05:22:50;;;;;;;10.82;7.90;;;2.80;99.90;;;;;;5054394;28;20230;-78
2023/02/10 05:25:17;;;;;;;6.05;5.25;;;2.90;99.90;;;;;;5053581;28;20751;-77
2023/02/10 05:27:44;;;;;;;8.77;7.57;;;2.90;99.90;;;;;;5054665;28;20628;-76
2023/02/10 05:30:12;;;;;;;8.27;6.40;;;2.90;99.90;;;;;;5054100;28;20219;-77
2023/02/10 05:32:39;;;;;;;31.00;12.68;;;2.90;99.90;;;;;;5053336;28;20273;-76
2023/02/10 05:35:07;;;;;;;22.95;14.23;;;2.90;99.90;;;;;;5054081;28;20195;-76
2023/02/10 05:37:35;;;;;;;6.25;4.75;;;2.90;99.90;;;;;;5054140;28;20293;-78
2023/02/10 05:40:02;;;;;;;3.60;3.40;;;3.00;99.90;;;;;;5054238;28;20191;-78
2023/02/10 05:42:29;;;;;;;7.78;3.40;;;3.00;99.90;;;;;;5053634;28;20591;-77
2023/02/10 05:44:56;;;;;;;5.07;4.13;;;3.00;99.90;;;;;;5053966;28;20198;-77
2023/02/10 05:47:23;;;;;;;1.42;1.33;;;3.00;99.90;;;;;;5053807;28;20238;-77
2023/02/10 05:49:50;;;;;;;2.35;2.25;;;3.00;99.90;;;;;;5053712;28;20722;-77
2023/02/10 05:52:17;;;;;;;13.40;6.20;;;3.10;99.90;;;;;;5053719;28;20203;-77
2023/02/10 05:54:45;;;;;;;12.93;6.90;;;3.10;99.90;;;;;;5053518;28;20199;-77
2023/02/10 05:57:12;;;;;;;2.25;1.35;;;3.10;99.90;;;;;;5054068;28;20632;-79
2023/02/10 05:59:39;;;;;;;8.55;6.90;;;3.20;99.90;;;;;;5053993;28;20257;-78
2023/02/10 06:02:06;;;;;;;15.07;9.75;;;3.20;99.90;;;;;;5053769;28;20281;-77
2023/02/10 06:04:33;;;;;;;8.18;5.60;;;3.30;99.90;;;;;;5053443;28;20215;-78
2023/02/10 06:06:59;;;;;;;10.40;3.75;;;3.30;99.90;;;;;;5053201;28;20281;-76
2023/02/10 06:09:27;;;;;;;21.13;13.25;;;3.30;99.90;;;;;;5053515;28;20585;-77
2023/02/10 06:11:55;;;;;;;2.55;2.15;;;3.30;99.90;;;;;;5053380;28;20194;-77
2023/02/10 06:14:22;;;;;;;21.55;10.95;;;3.30;99.90;;;;;;5053032;28;20215;-76
2023/02/10 06:16:49;;;;;;;4.55;2.20;;;3.40;99.90;;;;;;5052630;28;20194;-77
2023/02/10 06:19:15;;;;;;;9.73;5.63;;;3.40;99.90;;;;;;5053320;28;20191;-77
2023/02/10 06:21:42;;;;;;;18.23;3.45;;;3.40;99.90;;;;;;5052919;28;20199;-76
2023/02/10 06:24:09;;;;;;;7.47;6.90;;;3.50;99.90;;;;;;5052702;28;20226;-77
2023/02/10 06:26:36;;;;;;;9.90;4.88;;;3.50;99.90;;;;;;5052794;28;20195;-78
2023/02/10 06:29:04;;;;;;;17.70;8.75;;;3.50;99.90;;;;;;5053639;28;20541;-77
2023/02/10 06:31:31;;;;;;;13.70;7.05;;;3.50;99.90;;;;;;5053762;28;20547;-75
2023/02/10 06:33:58;;;;;;;16.08;9.27;;;3.50;99.90;;;;;;5054078;28;20211;-77
2023/02/10 06:36:25;;;;;;;2.00;1.88;;;3.50;99.90;;;;;;5053738;28;20233;-77
2023/02/10 06:38:52;;;;;;;7.13;6.57;;;3.50;99.90;;;;;;5052572;28;20282;-76
2023/02/10 06:41:19;;;;;;;2.35;2.25;;;3.60;99.90;;;;;;5052352;28;20198;-77
2023/02/10 06:43:45;;;;;;;2.67;2.05;;;3.60;99.90;;;;;;5052135;28;20214;-77
2023/02/10 06:46:15;;;;;;;2.97;2.38;;;3.60;99.90;;;;;;5052342;28;20285;-77
2023/02/10 06:48:42;;;;;;;3.83;3.63;;;3.60;99.90;;;;;;5053050;28;20203;-78
2023/02/10 06:51:08;;;;;;;4.35;2.20;;;3.60;99.90;;;;;;5053544;28;20226;-77
2023/02/10 06:53:35;;;;;;;0.85;0.85;;;3.60;99.90;;;;;;5053188;28;20301;-77
2023/02/10 06:56:02;;;;;;;8.35;7.25;;;3.60;99.90;;;;;;5052785;28;20195;-77
2023/02/10 06:58:29;;;;;;;5.07;4.63;;;3.70;99.90;;;;;;5053623;28;20290;-78
2023/02/10 07:00:58;;;;;;;4.28;3.25;;;3.70;99.90;;;;;;5053603;28;20237;-79
2023/02/10 07:03:26;;;;;;;4.35;4.07;;;3.60;99.90;;;;;;5053221;28;20293;-78
2023/02/10 07:05:53;;;;;;;1.25;1.15;;;3.60;99.90;;;;;;5052505;28;20199;-77
2023/02/10 07:08:20;;;;;;;12.30;9.32;;;3.60;99.90;;;;;;5053315;28;20277;-77
2023/02/10 07:10:47;;;;;;;8.68;5.13;;;3.60;99.90;;;;;;5053567;28;20214;-76
2023/02/10 07:13:14;;;;;;;0.73;0.73;;;3.60;99.90;;;;;;5052207;28;20215;-76
2023/02/10 07:15:42;;;;;;;12.48;6.35;;;3.50;99.90;;;;;;5052611;28;20226;-77
2023/02/10 07:18:09;;;;;;;2.65;2.47;;;3.50;99.90;;;;;;5053049;28;20234;-76
2023/02/10 07:20:37;;;;;;;14.88;13.32;;;3.50;99.90;;;;;;5054280;28;20229;-77
2023/02/10 07:23:04;;;;;;;21.50;14.50;;;3.40;99.90;;;;;;5051870;28;20703;-77
2023/02/10 07:25:31;;;;;;;5.38;3.63;;;3.40;99.90;;;;;;5052155;28;20230;-76
2023/02/10 07:27:57;;;;;;;0.95;0.95;;;3.40;99.90;;;;;;5051480;28;20237;-76
2023/02/10 07:30:24;;;;;;;16.25;8.32;;;3.30;99.90;;;;;;5051382;28;20264;-77
2023/02/10 07:32:51;;;;;;;3.83;3.03;;;3.40;99.90;;;;;;5051319;28;20253;-77
2023/02/10 07:35:18;;;;;;;11.82;10.63;;;3.40;99.90;;;;;;5051392;28;20286;-77
2023/02/10 07:37:46;;;;;;;15.60;6.10;;;3.30;99.90;;;;;;5052127;28;20198;-77
2023/02/10 07:40:13;;;;;;;12.05;11.10;;;3.30;99.90;;;;;;5052652;28;20222;-77
2023/02/10 07:42:40;;;;;;;4.00;2.55;;;3.30;99.90;;;;;;5052611;28;20221;-77
2023/02/10 07:45:08;;;;;;;11.23;7.40;;;3.20;99.90;;;;;;5051290;28;20243;-76
2023/02/10 07:47:35;;;;;;;10.77;9.77;;;3.30;99.90;;;;;;5051625;28;20214;-76
2023/02/10 07:50:03;;;;;;;19.13;10.70;;;3.20;99.90;;;;;;5051729;28;20301;-76
2023/02/10 07:52:29;;;;;;;6.95;6.25;;;3.20;99.90;;;;;;5053074;28;20771;-77
2023/02/10 07:54:58;;;;;;;9.93;5.97;;;3.20;99.90;;;;;;5054167;28;20201;-77
2023/02/10 07:57:25;;;;;;;28.50;9.07;;;3.20;99.90;;;;;;5056070;28;20226;-76
2023/02/10 07:59:52;;;;;;;9.93;9.05;;;3.30;99.90;;;;;;5055542;28;20627;-76
2023/02/10 08:02:19;;;;;;;23.25;12.52;;;3.30;99.90;;;;;;5054911;28;20258;-75
2023/02/10 08:04:46;;;;;;;4.22;2.75;;;3.40;99.90;;;;;;5055201;28;20424;-76
2023/02/10 08:07:13;;;;;;;9.35;5.43;;;3.40;99.90;;;;;;5054738;28;20285;-76
2023/02/10 08:09:39;;;;;;;32.00;14.43;;;3.50;99.90;;;;;;5054551;28;20271;-76
2023/02/10 08:12:08;;;;;;;18.17;8.70;;;3.60;99.90;;;;;;5054831;28;20299;-76
2023/02/10 08:14:34;;;;;;;5.97;4.70;;;3.70;99.90;;;;;;5054318;28;20242;-78
2023/02/10 08:17:02;;;;;;;10.23;4.63;;;3.70;99.90;;;;;;5054276;28;20667;-78
2023/02/10 08:19:28;;;;;;;4.38;4.15;;;3.80;99.90;;;;;;5055034;28;20199;-77
2023/02/10 08:21:55;;;;;;;17.77;6.72;;;3.80;99.90;;;;;;5054553;28;20202;-78
2023/02/10 08:24:22;;;;;;;14.93;10.30;;;3.80;99.90;;;;;;5054199;28;20309;-74
2023/02/10 08:26:49;;;;;;;8.55;7.85;;;3.90;99.90;;;;;;5055021;28;20621;-78
2023/02/10 08:29:17;;;;;;;8.52;4.80;;;3.90;99.90;;;;;;5054544;28;20201;-76
2023/02/10 08:31:44;;;;;;;6.93;5.45;;;4.10;99.90;;;;;;5054714;28;20269;-76
2023/02/10 08:34:16;;;;;;;25.38;11.68;;;4.50;99.90;;;;;;5055248;28;20340;-75
2023/02/10 08:36:43;;;;;;;24.83;10.05;;;5.00;99.90;;;;;;5054654;28;20203;-77
2023/02/10 08:39:10;;;;;;;15.65;6.55;;;5.60;99.90;;;;;;5054374;28;20285;-77
2023/02/10 08:41:37;;;;;;;11.80;6.90;;;5.80;99.90;;;;;;5054643;28;20567;-79
2023/02/10 08:44:04;;;;;;;14.45;7.72;;;6.20;99.90;;;;;;5054785;28;20566;-77
2023/02/10 08:46:33;;;;;;;16.42;11.52;;;6.20;99.90;;;;;;5054550;28;20191;-77
2023/02/10 08:49:00;;;;;;;5.22;3.47;;;6.50;99.90;;;;;;5054461;28;20207;-76
2023/02/10 08:51:28;;;;;;;19.90;10.38;;;6.80;99.90;;;;;;5054842;28;20211;-77
2023/02/10 08:53:55;;;;;;;13.20;11.30;;;6.60;99.90;;;;;;5054459;28;20297;-78
2023/02/10 08:56:23;;;;;;;7.47;6.55;;;6.50;99.90;;;;;;5055379;28;20198;-77
2023/02/10 08:58:51;;;;;;;10.35;6.95;;;6.50;99.90;;;;;;5055050;28;20199;-78
2023/02/10 09:01:20;;;;;;;3.05;2.78;;;6.70;99.90;;;;;;5055441;28;20696;-77
2023/02/10 09:03:48;;;;;;;8.30;4.60;;;6.30;99.90;;;;;;5055779;28;20305;-77
2023/02/10 09:06:17;;;;;;;14.70;9.80;;;6.20;99.90;;;;;;5054748;28;20203;-77
2023/02/10 09:08:46;;;;;;;20.20;5.95;;;6.20;99.90;;;;;;5055625;28;20199;-76
2023/02/10 09:11:12;;;;;;;27.30;13.15;;;6.80;99.90;;;;;;5055118;28;20302;-77
2023/02/10 09:13:39;;;;;;;17.05;8.45;;;6.80;99.90;;;;;;5053384;28;20225;-77
2023/02/10 09:16:07;;;;;;;12.20;7.90;;;6.40;99.90;;;;;;5053169;28;20219;-76
2023/02/10 09:18:34;;;;;;;23.33;19.00;;;6.10;99.90;;;;;;5053283;28;20290;-76
2023/02/10 09:21:02;;;;;;;0.90;0.90;;;6.30;99.90;;;;;;5053980;28;20190;-77
2023/02/10 09:23:29;;;;;;;15.48;9.65;;;6.80;99.90;;;;;;5110134;22;20607;-81
2023/02/10 09:25:58;;;;;;;13.40;8.75;;;7.30;99.90;;;;;;5083894;28;20309;-80
2023/02/10 09:28:25;;;;;;;28.00;15.25;;;7.30;99.90;;;;;;5092479;28;20676;-77
2023/02/10 09:30:52;;;;;;;16.05;8.55;;;7.10;99.90;;;;;;5099429;28;20209;-80
2023/02/10 09:33:19;;;;;;;7.95;5.07;;;7.10;99.90;;;;;;5096750;28;20197;-80
2023/02/10 09:35:46;;;;;;;4.88;3.58;;;7.40;99.90;;;;;;5076630;28;20200;-80
2023/02/10 09:38:14;;;;;;;8.88;5.07;;;7.40;99.90;;;;;;5078052;28;20217;-79
2023/02/10 09:40:50;;;;;;;7.43;5.00;;;7.50;99.90;;;;;;5080443;28;20251;-80
2023/02/10 09:43:28;;;;;;;8.52;7.32;;;7.50;99.90;;;;;;5079683;28;20232;-79
2023/02/10 09:46:02;;;;;;;15.75;8.50;;;7.50;99.90;;;;;;5079984;28;20204;-81
2023/02/10 09:48:39;;;;;;;30.30;16.15;;;7.60;99.90;;;;;;5080834;28;20616;-81
2023/02/10 09:51:14;;;;;;;16.52;10.48;;;7.50;99.90;;;;;;5080065;28;20304;-81
2023/02/10 09:53:42;;;;;;;7.50;6.70;;;7.20;99.90;;;;;;5080246;28;20610;-80
2023/02/10 09:56:18;;;;;;;16.95;9.57;;;7.10;99.90;;;;;;5078576;28;20200;-81
2023/02/10 09:58:47;;;;;;;13.52;9.25;;;6.80;99.90;;;;;;5079835;28;20206;-81
2023/02/10 10:01:17;;;;;;;28.55;13.80;;;6.90;99.90;;;;;;5078775;28;20190;-81
2023/02/10 10:03:49;;;;;;;30.23;11.73;;;7.00;99.90;;;;;;5079538;28;20634;-81
2023/02/10 10:06:23;;;;;;;12.63;8.18;;;6.90;99.90;;;;;;5079313;28;20197;-82
2023/02/10 10:09:00;;;;;;;20.15;11.43;;;7.00;99.90;;;;;;5080057;28;20225;-79
2023/02/10 10:11:33;;;;;;;12.90;9.07;;;7.00;99.90;;;;;;5080499;28;20240;-81
2023/02/10 10:14:01;;;;;;;25.58;7.35;;;7.00;99.90;;;;;;5079952;28;20221;-81
2023/02/10 10:16:46;;;;;;;16.05;9.77;;;7.20;99.90;;;;;;5078009;28;20194;-80
2023/02/10 10:19:27;;;;;;;12.05;10.10;;;7.50;99.90;;;;;;5078243;28;20220;-80
2023/02/10 10:22:04;;;;;;;16.95;10.65;;;7.80;99.90;;;;;;5062991;28;20241;-80
2023/02/10 10:24:46;;;;;;;0.82;0.80;;;7.70;99.90;;;;;;5076776;28;20228;-81
2023/02/10 10:27:21;;;;;;;21.70;7.35;;;7.50;99.90;;;;;;5056999;28;20285;-78
2023/02/10 10:29:53;;;;;;;16.42;6.50;;;7.90;99.90;;;;;;5059680;28;20202;-81
2023/02/10 10:32:33;;;;;;;6.88;4.35;;;7.50;99.90;;;;;;5077065;28;20210;-78
2023/02/10 10:35:01;;;;;;;18.83;10.80;;;7.40;99.90;;;;;;5076515;28;20239;-80
2023/02/10 10:37:28;;;;;;;10.23;5.90;;;7.50;99.90;;;;;;5076623;28;20198;-80
2023/02/10 10:40:01;;;;;;;2.40;2.17;;;7.60;99.90;;;;;;5075945;28;20220;-80
2023/02/10 10:42:35;;;;;;;8.13;5.90;;;8.00;99.90;;;;;;5077015;28;20276;-80
2023/02/10 10:45:07;;;;;;;15.35;6.80;;;8.10;99.90;;;;;;5077408;28;20300;-80
2023/02/10 10:47:41;;;;;;;12.48;10.13;;;7.70;99.90;;;;;;5077079;28;20174;-81
2023/02/10 10:50:15;;;;;;;26.92;10.38;;;7.60;99.90;;;;;;5077281;28;20264;-79
2023/02/10 10:52:43;;;;;;;6.72;4.80;;;7.90;99.90;;;;;;5076186;28;20631;-80
2023/02/10 10:55:16;;;;;;;2.95;1.65;;;8.10;99.90;;;;;;5076062;28;20579;-78
2023/02/10 10:57:43;;;;;;;9.55;4.35;;;8.70;99.90;;;;;;5075852;28;20197;-81
2023/02/10 11:00:20;;;;;;;5.80;5.30;;;8.80;99.90;;;;;;5076846;28;20284;-81
2023/02/10 11:02:59;;;;;;;10.18;7.82;;;8.80;99.90;;;;;;5075713;28;20194;-81
2023/02/10 11:05:30;;;;;;;2.85;2.75;;;8.90;99.90;;;;;;5076195;28;20229;-81
2023/02/10 11:07:57;;;;;;;11.70;6.13;;;9.00;99.90;;;;;;5074320;28;20289;-81
2023/02/10 11:10:31;;;;;;;3.10;2.90;;;9.40;99.90;;;;;;5075622;28;20689;-81
2023/02/10 11:12:59;;;;;;;9.00;3.80;;;9.60;99.90;;;;;;5076487;28;20630;-81
2023/02/10 11:15:39;;;;;;;8.00;7.50;;;9.70;99.90;;;;;;5076268;28;20241;-81
2023/02/10 11:18:13;;;;;;;3.60;2.55;;;10.10;99.90;;;;;;5076927;28;20246;-82
2023/02/10 11:20:40;;;;;;;6.85;3.70;;;10.60;99.90;;;;;;5077428;28;20182;-80
2023/02/10 11:23:14;;;;;;;15.85;8.30;;;11.00;99.90;;;;;;5077422;28;20190;-80
2023/02/10 11:25:47;;;;;;;3.20;2.90;;;11.00;99.90;;;;;;5079185;28;20280;-81
2023/02/10 11:28:19;;;;;;;3.05;2.85;;;10.80;99.90;;;;;;5077698;28;20225;-81
2023/02/10 11:30:48;;;;;;;34.25;12.32;;;10.70;99.90;;;;;;5080786;28;20196;-79
2023/02/10 11:33:22;;;;;;;16.40;9.93;;;9.50;99.90;;;;;;5082827;28;20221;-79
2023/02/10 11:35:49;;;;;;;8.10;6.18;;;8.70;99.90;;;;;;5072877;28;20568;-80
2023/02/10 11:38:20;;;;;;;5.38;4.70;;;8.40;99.90;;;;;;5081600;28;20208;-76
2023/02/10 11:40:53;;;;;;;5.47;2.17;;;8.20;99.90;;;;;;5082549;28;20192;-80
2023/02/10 11:43:20;;;;;;;13.95;7.75;;;8.00;99.90;;;;;;5082340;28;20194;-80
2023/02/10 11:45:55;;;;;;;11.02;3.28;;;7.80;99.90;;;;;;5080863;28;20196;-80
2023/02/10 11:48:25;;;;;;;11.52;6.20;;;7.70;99.90;;;;;;5083847;28;20193;-81
2023/02/10 11:51:02;;;;;;;14.00;7.82;;;7.70;99.90;;;;;;5084086;28;20193;-79
2023/02/10 11:53:33;;;;;;;16.63;10.57;;;7.50;99.90;;;;;;5084586;28;20241;-80
2023/02/10 11:56:04;;;;;;;12.23;7.32;;;7.70;99.90;;;;;;5083792;28;20197;-80
2023/02/10 11:58:59;;;;;;;28.05;11.77;;;8.20;99.90;;;;;;5084101;28;20232;-80
2023/02/10 12:01:39;;;;;;;5.80;5.32;;;8.50;99.90;;;;;;5082218;28;20309;-79
2023/02/10 12:04:19;;;;;;;5.20;2.65;;;9.30;99.90;;;;;;5083601;28;20244;-79
2023/02/10 12:06:56;;;;;;;6.07;5.55;;;10.10;99.90;;;;;;5083597;28;20262;-80
2023/02/10 12:09:28;;;;;;;3.78;2.85;;;10.00;99.90;;;;;;5082348;28;20273;-78
2023/02/10 12:12:05;;;;;;;9.07;5.60;;;9.60;99.90;;;;;;5082431;28;20198;-78
2023/02/10 12:14:48;;;;;;;6.32;3.20;;;9.30;99.90;;;;;;5082810;28;20248;-78
2023/02/10 12:17:27;;;;;;;3.72;3.20;;;9.00;99.90;;;;;;5082192;28;20333;-75
2023/02/10 12:20:10;;;;;;;10.50;8.07;;;8.70;99.90;;;;;;5079852;28;20189;-79
2023/02/10 12:22:53;;;;;;;18.10;9.77;;;8.60;99.90;;;;;;5080698;28;20671;-80
2023/02/10 12:25:23;;;;;;;2.08;1.88;;;8.40;99.90;;;;;;5079901;28;20309;-82
2023/02/10 12:28:02;;;;;;;5.93;5.35;;;8.10;99.90;;;;;;5081412;28;20198;-79
2023/02/10 12:30:46;;;;;;;13.95;7.47;;;8.10;99.90;;;;;;5083171;28;20197;-80
2023/02/10 12:33:36;;;;;;;4.13;2.30;;;8.10;99.90;;;;;;5081444;28;20261;-79
2023/02/10 12:36:10;;;;;;;2.65;2.45;;;8.10;99.90;;;;;;5081603;28;20608;-80
2023/02/10 12:38:56;;;;;;;8.27;4.25;;;8.00;99.90;;;;;;5081757;28;20244;-80
2023/02/10 12:41:29;;;;;;;6.95;4.55;;;7.80;99.90;;;;;;5079645;28;20193;-81
2023/02/10 12:44:11;;;;;;;2.83;2.55;;;7.70;99.90;;;;;;5078620;28;20285;-81
2023/02/10 12:46:47;;;;;;;7.25;3.78;;;7.60;99.90;;;;;;5081153;28;20273;-80
2023/02/10 12:49:24;;;;;;;1.73;1.63;;;7.60;99.90;;;;;;5083335;28;20196;-79
2023/02/10 12:52:00;;;;;;;7.68;2.55;;;7.70;99.90;;;;;;5080488;28;20304;-80
2023/02/10 12:54:34;;;;;;;0.50;0.40;;;7.80;99.90;;;;;;5081089;28;20237;-78
2023/02/10 12:57:05;;;;;;;0.60;0.40;;;8.00;99.90;;;;;;5080781;28;20246;-81
2023/02/10 12:59:39;;;;;;;1.85;1.75;;;8.10;99.90;;;;;;5081307;28;20265;-79
2023/02/10 13:02:12;;;;;;;0.82;0.80;;;8.30;99.90;;;;;;5081400;28;20220;-80
2023/02/10 13:04:45;;;;;;;4.53;2.72;;;8.60;99.90;;;;;;5081105;28;20305;-79
2023/02/10 13:07:21;;;;;;;0.50;0.40;;;8.80;99.90;;;;;;5080247;28;20272;-81
2023/02/10 13:09:51;;;;;;;1.17;1.17;;;9.00;99.90;;;;;;5082366;28;20630;-81